sensor_id;sensor_type;location;lat;lon;timestamp;pressure;altitude;pressure_sealevel;temperature;humidity
1926;BME280;964;42.606;23.588;2023-05-29T00:00:36;94279.13;;;32.42;32.05
1926;BME280;964;42.606;23.588;2023-05-29T00:03:03;94276.16;;;32.56;31.65
1926;BME280;964;42.606;23.588;2023-05-29T00:05:30;94279.38;;;32.49;32.26
1926;BME280;964;42.606;23.588;2023-05-29T00:07:57;94280.81;;;32.28;32.33
1926;BME280;964;42.606;23.588;2023-05-29T00:10:25;94276.63;;;32.38;32.32
1926;BME280;964;42.606;23.588;2023-05-29T00:12:52;94272.63;;;32.34;32.09
1926;BME280;964;42.606;23.588;2023-05-29T00:15:21;94279.88;;;32.42;31.84
1926;BME280;964;42.606;23.588;2023-05-29T00:17:48;94284.84;;;32.38;31.76
1926;BME280;964;42.606;23.588;2023-05-29T00:20:16;94279.31;;;32.16;32.30
1926;BME280;964;42.606;23.588;2023-05-29T00:22:43;94277.94;;;31.78;32.89
1926;BME280;964;42.606;23.588;2023-05-29T00:25:10;94282.63;;;31.67;32.45
1926;BME280;964;42.606;23.588;2023-05-29T00:27:38;94273.78;;;31.46;33.05
1926;BME280;964;42.606;23.588;2023-05-29T00:30:06;94280.66;;;31.25;33.23
1926;BME280;964;42.606;23.588;2023-05-29T00:32:33;94269.16;;;31.57;32.55
1926;BME280;964;42.606;23.588;2023-05-29T00:35:00;94270.19;;;31.66;32.30
1926;BME280;964;42.606;23.588;2023-05-29T00:37:26;94276.69;;;30.94;33.73
1926;BME280;964;42.606;23.588;2023-05-29T00:39:53;94273.44;;;31.27;33.29
1926;BME280;964;42.606;23.588;2023-05-29T00:42:20;94269.19;;;31.69;32.83
1926;BME280;964;42.606;23.588;2023-05-29T00:44:48;94271.66;;;31.67;32.64
1926;BME280;964;42.606;23.588;2023-05-29T00:47:15;94266.78;;;31.93;31.90
1926;BME280;964;42.606;23.588;2023-05-29T00:49:42;94278.44;;;31.77;32.20
1926;BME280;964;42.606;23.588;2023-05-29T00:52:09;94270.91;;;31.66;32.13
1926;BME280;964;42.606;23.588;2023-05-29T00:54:37;94262.16;;;31.56;32.67
1926;BME280;964;42.606;23.588;2023-05-29T00:57:04;94279.91;;;31.24;32.69
1926;BME280;964;42.606;23.588;2023-05-29T00:59:33;94276.38;;;31.60;32.35
1926;BME280;964;42.606;23.588;2023-05-29T01:02:02;94274.56;;;30.73;33.54
1926;BME280;964;42.606;23.588;2023-05-29T01:04:29;94282.09;;;30.26;34.28
1926;BME280;964;42.606;23.588;2023-05-29T01:06:59;94280.47;;;30.65;33.48
1926;BME280;964;42.606;23.588;2023-05-29T01:09:27;94285.75;;;30.43;33.90
1926;BME280;964;42.606;23.588;2023-05-29T01:11:59;94281.56;;;30.48;34.05
1926;BME280;964;42.606;23.588;2023-05-29T01:14:35;94280.34;;;30.80;33.29
1926;BME280;964;42.606;23.588;2023-05-29T01:17:11;94271.66;;;30.82;33.12
1926;BME280;964;42.606;23.588;2023-05-29T01:19:59;94272.44;;;30.88;32.84
1926;BME280;964;42.606;23.588;2023-05-29T01:22:39;94272.50;;;30.67;33.33
1926;BME280;964;42.606;23.588;2023-05-29T01:25:11;94277.59;;;30.49;33.57
1926;BME280;964;42.606;23.588;2023-05-29T01:27:46;94271.47;;;30.08;34.03
1926;BME280;964;42.606;23.588;2023-05-29T01:30:15;94266.75;;;30.08;33.92
1926;BME280;964;42.606;23.588;2023-05-29T01:32:42;94272.31;;;29.94;34.30
1926;BME280;964;42.606;23.588;2023-05-29T01:35:09;94266.72;;;29.83;34.18
1926;BME280;964;42.606;23.588;2023-05-29T01:37:36;94274.78;;;29.92;34.10
1926;BME280;964;42.606;23.588;2023-05-29T01:40:03;94265.34;;;29.52;34.91
1926;BME280;964;42.606;23.588;2023-05-29T01:42:30;94259.88;;;29.52;34.85
1926;BME280;964;42.606;23.588;2023-05-29T01:45:00;94265.63;;;29.54;35.00
1926;BME280;964;42.606;23.588;2023-05-29T01:47:29;94261.19;;;29.57;34.68
1926;BME280;964;42.606;23.588;2023-05-29T01:49:56;94259.06;;;29.66;34.61
1926;BME280;964;42.606;23.588;2023-05-29T01:52:23;94262.94;;;30.00;34.14
1926;BME280;964;42.606;23.588;2023-05-29T01:54:50;94260.22;;;30.00;33.67
1926;BME280;964;42.606;23.588;2023-05-29T01:57:17;94264.06;;;29.88;34.09
1926;BME280;964;42.606;23.588;2023-05-29T01:59:44;94264.53;;;29.87;34.22
1926;BME280;964;42.606;23.588;2023-05-29T02:02:12;94250.47;;;29.94;34.05
1926;BME280;964;42.606;23.588;2023-05-29T02:04:39;94246.09;;;30.02;34.06
1926;BME280;964;42.606;23.588;2023-05-29T02:07:05;94246.09;;;30.02;33.66
1926;BME280;964;42.606;23.588;2023-05-29T02:09:34;94249.06;;;30.04;33.75
1926;BME280;964;42.606;23.588;2023-05-29T02:12:01;94248.31;;;30.03;33.88
1926;BME280;964;42.606;23.588;2023-05-29T02:14:28;94243.06;;;30.00;33.82
1926;BME280;964;42.606;23.588;2023-05-29T02:16:57;94257.53;;;30.06;33.56
1926;BME280;964;42.606;23.588;2023-05-29T02:19:25;94257.94;;;29.99;33.48
1926;BME280;964;42.606;23.588;2023-05-29T02:21:52;94259.47;;;30.00;33.22
1926;BME280;964;42.606;23.588;2023-05-29T02:24:18;94260.41;;;29.77;33.44
1926;BME280;964;42.606;23.588;2023-05-29T02:26:47;94257.72;;;29.36;34.30
1926;BME280;964;42.606;23.588;2023-05-29T02:29:14;94258.94;;;29.00;34.96
1926;BME280;964;42.606;23.588;2023-05-29T02:31:41;94260.56;;;29.67;33.92
1926;BME280;964;42.606;23.588;2023-05-29T02:34:07;94268.75;;;29.88;33.68
1926;BME280;964;42.606;23.588;2023-05-29T02:36:35;94269.50;;;29.88;33.48
1926;BME280;964;42.606;23.588;2023-05-29T02:39:02;94281.81;;;29.23;34.58
1926;BME280;964;42.606;23.588;2023-05-29T02:41:29;94272.88;;;29.57;33.99
1926;BME280;964;42.606;23.588;2023-05-29T02:43:56;94278.06;;;29.76;33.83
1926;BME280;964;42.606;23.588;2023-05-29T02:46:22;94287.41;;;29.89;33.95
1926;BME280;964;42.606;23.588;2023-05-29T02:48:49;94282.06;;;30.00;33.95
1926;BME280;964;42.606;23.588;2023-05-29T02:51:15;94282.03;;;30.46;33.43
1926;BME280;964;42.606;23.588;2023-05-29T02:53:43;94277.69;;;30.97;33.18
1926;BME280;964;42.606;23.588;2023-05-29T02:56:10;94276.59;;;30.78;33.46
1926;BME280;964;42.606;23.588;2023-05-29T02:58:37;94272.34;;;31.08;33.44
1926;BME280;964;42.606;23.588;2023-05-29T03:01:04;94265.97;;;31.22;32.87
1926;BME280;964;42.606;23.588;2023-05-29T03:03:31;94277.69;;;30.91;33.49
1926;BME280;964;42.606;23.588;2023-05-29T03:05:57;94267.91;;;31.16;33.06
1926;BME280;964;42.606;23.588;2023-05-29T03:08:26;94261.09;;;31.48;32.69
1926;BME280;964;42.606;23.588;2023-05-29T03:10:54;94267.13;;;31.52;32.93
1926;BME280;964;42.606;23.588;2023-05-29T03:13:22;94262.50;;;31.81;32.69
1926;BME280;964;42.606;23.588;2023-05-29T03:15:48;94270.47;;;31.84;33.09
1926;BME280;964;42.606;23.588;2023-05-29T03:18:16;94260.28;;;31.96;32.37
1926;BME280;964;42.606;23.588;2023-05-29T03:20:43;94262.13;;;32.21;31.93
1926;BME280;964;42.606;23.588;2023-05-29T03:23:09;94271.84;;;32.22;32.06
1926;BME280;964;42.606;23.588;2023-05-29T03:25:36;94280.31;;;32.24;32.05
1926;BME280;964;42.606;23.588;2023-05-29T03:28:04;94271.88;;;32.33;32.28
1926;BME280;964;42.606;23.588;2023-05-29T03:30:30;94269.88;;;32.50;32.21
1926;BME280;964;42.606;23.588;2023-05-29T03:32:57;94272.16;;;32.80;31.44
1926;BME280;964;42.606;23.588;2023-05-29T03:35:28;94272.19;;;32.74;31.62
1926;BME280;964;42.606;23.588;2023-05-29T03:37:55;94266.44;;;32.78;32.20
1926;BME280;964;42.606;23.588;2023-05-29T03:40:21;94267.44;;;32.86;31.70
1926;BME280;964;42.606;23.588;2023-05-29T03:42:48;94265.16;;;32.90;31.74
1926;BME280;964;42.606;23.588;2023-05-29T03:45:17;94277.91;;;32.93;31.46
1926;BME280;964;42.606;23.588;2023-05-29T03:47:44;94282.91;;;32.78;31.66
1926;BME280;964;42.606;23.588;2023-05-29T03:50:10;94289.38;;;33.19;31.12
1926;BME280;964;42.606;23.588;2023-05-29T03:52:40;94291.06;;;32.28;32.24
1926;BME280;964;42.606;23.588;2023-05-29T03:55:09;94300.38;;;32.75;31.78
1926;BME280;964;42.606;23.588;2023-05-29T03:57:38;94300.84;;;33.23;31.23
1926;BME280;964;42.606;23.588;2023-05-29T04:00:06;94300.31;;;33.41;30.66
1926;BME280;964;42.606;23.588;2023-05-29T04:02:36;94286.34;;;33.39;30.51
1926;BME280;964;42.606;23.588;2023-05-29T04:05:03;94296.06;;;33.46;30.31
1926;BME280;964;42.606;23.588;2023-05-29T04:07:30;94297.53;;;33.69;30.21
1926;BME280;964;42.606;23.588;2023-05-29T04:09:58;94306.53;;;33.64;30.26
1926;BME280;964;42.606;23.588;2023-05-29T04:12:24;94305.50;;;33.73;30.15
1926;BME280;964;42.606;23.588;2023-05-29T04:14:51;94310.25;;;33.67;30.48
1926;BME280;964;42.606;23.588;2023-05-29T04:17:18;94314.75;;;33.70;30.31
1926;BME280;964;42.606;23.588;2023-05-29T04:19:46;94319.69;;;33.88;30.34
1926;BME280;964;42.606;23.588;2023-05-29T04:22:13;94306.81;;;33.38;31.04
1926;BME280;964;42.606;23.588;2023-05-29T04:24:40;94314.00;;;33.64;31.00
1926;BME280;964;42.606;23.588;2023-05-29T04:27:07;94318.72;;;33.74;30.84
1926;BME280;964;42.606;23.588;2023-05-29T04:29:34;94321.25;;;33.56;31.10
1926;BME280;964;42.606;23.588;2023-05-29T04:32:02;94303.06;;;34.10;30.36
1926;BME280;964;42.606;23.588;2023-05-29T04:34:29;94315.31;;;33.01;31.62
1926;BME280;964;42.606;23.588;2023-05-29T04:36:58;94312.66;;;33.98;30.82
1926;BME280;964;42.606;23.588;2023-05-29T04:39:24;94313.78;;;33.50;31.41
1926;BME280;964;42.606;23.588;2023-05-29T04:41:52;94312.47;;;33.79;31.05
1926;BME280;964;42.606;23.588;2023-05-29T04:44:19;94307.50;;;34.30;30.82
1926;BME280;964;42.606;23.588;2023-05-29T04:46:46;94308.47;;;34.73;30.21
1926;BME280;964;42.606;23.588;2023-05-29T04:49:13;94299.06;;;34.93;29.86
1926;BME280;964;42.606;23.588;2023-05-29T04:51:39;94305.38;;;34.53;30.75
1926;BME280;964;42.606;23.588;2023-05-29T04:54:09;94306.81;;;34.94;30.28
1926;BME280;964;42.606;23.588;2023-05-29T04:56:36;94312.56;;;34.97;29.81
1926;BME280;964;42.606;23.588;2023-05-29T04:59:05;94313.38;;;35.21;29.89
1926;BME280;964;42.606;23.588;2023-05-29T05:01:32;94314.38;;;35.48;29.29
1926;BME280;964;42.606;23.588;2023-05-29T05:03:59;94325.81;;;35.52;29.52
1926;BME280;964;42.606;23.588;2023-05-29T05:06:25;94322.09;;;35.50;29.31
1926;BME280;964;42.606;23.588;2023-05-29T05:08:52;94326.13;;;35.49;29.39
1926;BME280;964;42.606;23.588;2023-05-29T05:11:22;94325.53;;;35.31;29.28
1926;BME280;964;42.606;23.588;2023-05-29T05:13:49;94329.13;;;35.51;29.25
1926;BME280;964;42.606;23.588;2023-05-29T05:16:15;94329.97;;;35.10;29.80
1926;BME280;964;42.606;23.588;2023-05-29T05:18:43;94333.59;;;34.94;29.47
1926;BME280;964;42.606;23.588;2023-05-29T05:21:10;94335.94;;;34.84;30.45
1926;BME280;964;42.606;23.588;2023-05-29T05:23:37;94334.63;;;34.91;30.88
1926;BME280;964;42.606;23.588;2023-05-29T05:26:03;94332.78;;;35.34;30.77
1926;BME280;964;42.606;23.588;2023-05-29T05:28:32;94329.50;;;35.66;29.61
1926;BME280;964;42.606;23.588;2023-05-29T05:30:59;94329.69;;;35.43;30.72
1926;BME280;964;42.606;23.588;2023-05-29T05:33:27;94330.25;;;35.36;30.91
1926;BME280;964;42.606;23.588;2023-05-29T05:35:53;94328.94;;;35.92;29.89
1926;BME280;964;42.606;23.588;2023-05-29T05:38:20;94322.28;;;36.43;29.65
1926;BME280;964;42.606;23.588;2023-05-29T05:40:47;94318.84;;;36.74;28.86
1926;BME280;964;42.606;23.588;2023-05-29T05:43:13;94327.59;;;36.60;28.29
1926;BME280;964;42.606;23.588;2023-05-29T05:45:42;94326.91;;;36.54;28.78
1926;BME280;964;42.606;23.588;2023-05-29T05:48:09;94325.03;;;36.62;28.40
1926;BME280;964;42.606;23.588;2023-05-29T05:50:35;94321.75;;;36.95;27.61
1926;BME280;964;42.606;23.588;2023-05-29T05:53:02;94327.78;;;36.62;28.69
1926;BME280;964;42.606;23.588;2023-05-29T05:55:29;94335.50;;;35.88;29.92
1926;BME280;964;42.606;23.588;2023-05-29T05:57:55;94336.59;;;35.56;29.97
1926;BME280;964;42.606;23.588;2023-05-29T06:00:23;94333.03;;;36.47;29.61
1926;BME280;964;42.606;23.588;2023-05-29T06:02:51;94328.69;;;36.70;28.84
1926;BME280;964;42.606;23.588;2023-05-29T06:05:17;94338.56;;;36.28;28.95
1926;BME280;964;42.606;23.588;2023-05-29T06:07:44;94336.16;;;36.37;29.45
1926;BME280;964;42.606;23.588;2023-05-29T06:10:11;94342.25;;;36.12;29.23
1926;BME280;964;42.606;23.588;2023-05-29T06:12:38;94345.06;;;37.00;28.08
1926;BME280;964;42.606;23.588;2023-05-29T06:15:06;94337.06;;;36.96;29.08
1926;BME280;964;42.606;23.588;2023-05-29T06:17:33;94329.53;;;37.42;28.10
1926;BME280;964;42.606;23.588;2023-05-29T06:20:01;94336.31;;;36.64;29.51
1926;BME280;964;42.606;23.588;2023-05-29T06:22:29;94339.41;;;36.92;29.20
1926;BME280;964;42.606;23.588;2023-05-29T06:24:55;94340.91;;;36.93;28.65
1926;BME280;964;42.606;23.588;2023-05-29T06:27:22;94337.50;;;36.68;28.64
1926;BME280;964;42.606;23.588;2023-05-29T06:29:51;94331.78;;;37.43;27.39
1926;BME280;964;42.606;23.588;2023-05-29T06:32:17;94331.09;;;37.24;27.46
1926;BME280;964;42.606;23.588;2023-05-29T06:34:44;94324.06;;;37.68;26.44
1926;BME280;964;42.606;23.588;2023-05-29T06:37:12;94324.69;;;37.87;26.32
1926;BME280;964;42.606;23.588;2023-05-29T06:39:39;94320.47;;;37.99;26.17
1926;BME280;964;42.606;23.588;2023-05-29T06:42:07;94321.44;;;37.17;27.39
1926;BME280;964;42.606;23.588;2023-05-29T06:44:34;94326.06;;;37.09;27.81
1926;BME280;964;42.606;23.588;2023-05-29T06:47:00;94325.19;;;37.01;27.26
1926;BME280;964;42.606;23.588;2023-05-29T06:49:27;94325.88;;;37.20;27.01
1926;BME280;964;42.606;23.588;2023-05-29T06:51:54;94327.56;;;37.10;27.36
1926;BME280;964;42.606;23.588;2023-05-29T06:54:22;94325.44;;;37.48;26.99
1926;BME280;964;42.606;23.588;2023-05-29T06:56:48;94329.06;;;37.83;26.34
1926;BME280;964;42.606;23.588;2023-05-29T06:59:16;94330.44;;;37.76;26.42
1926;BME280;964;42.606;23.588;2023-05-29T07:01:42;94322.59;;;38.53;25.65
1926;BME280;964;42.606;23.588;2023-05-29T07:04:11;94324.81;;;37.95;25.98
1926;BME280;964;42.606;23.588;2023-05-29T07:06:37;94334.78;;;37.45;26.78
1926;BME280;964;42.606;23.588;2023-05-29T07:09:04;94339.47;;;38.42;26.07
1926;BME280;964;42.606;23.588;2023-05-29T07:11:32;94328.16;;;39.29;25.30
1926;BME280;964;42.606;23.588;2023-05-29T07:13:59;94327.63;;;40.15;23.68
1926;BME280;964;42.606;23.588;2023-05-29T07:16:26;94324.41;;;39.47;24.47
1926;BME280;964;42.606;23.588;2023-05-29T07:18:52;94332.34;;;37.55;26.68
1926;BME280;964;42.606;23.588;2023-05-29T07:21:19;94338.97;;;38.04;26.15
1926;BME280;964;42.606;23.588;2023-05-29T07:23:46;94329.59;;;38.20;25.40
1926;BME280;964;42.606;23.588;2023-05-29T07:26:13;94332.91;;;37.21;26.41
1926;BME280;964;42.606;23.588;2023-05-29T07:28:41;94340.16;;;37.24;25.97
1926;BME280;964;42.606;23.588;2023-05-29T07:31:08;94339.94;;;37.22;26.11
1926;BME280;964;42.606;23.588;2023-05-29T07:33:34;94335.34;;;37.83;25.97
1926;BME280;964;42.606;23.588;2023-05-29T07:36:01;94333.59;;;38.46;25.95
1926;BME280;964;42.606;23.588;2023-05-29T07:38:28;94328.16;;;38.87;24.74
1926;BME280;964;42.606;23.588;2023-05-29T07:40:55;94330.84;;;38.33;25.45
1926;BME280;964;42.606;23.588;2023-05-29T07:43:23;94332.44;;;39.30;24.63
1926;BME280;964;42.606;23.588;2023-05-29T07:45:51;94329.97;;;39.47;25.31
1926;BME280;964;42.606;23.588;2023-05-29T07:48:17;94328.00;;;39.55;24.63
1926;BME280;964;42.606;23.588;2023-05-29T07:50:44;94328.41;;;39.17;24.67
1926;BME280;964;42.606;23.588;2023-05-29T07:53:12;94331.75;;;38.82;24.63
1926;BME280;964;42.606;23.588;2023-05-29T07:55:38;94338.56;;;38.60;25.94
1926;BME280;964;42.606;23.588;2023-05-29T07:58:05;94326.41;;;39.67;24.54
1926;BME280;964;42.606;23.588;2023-05-29T08:00:31;94327.81;;;39.81;24.42
1926;BME280;964;42.606;23.588;2023-05-29T08:03:00;94327.81;;;39.81;24.75
1926;BME280;964;42.606;23.588;2023-05-29T08:05:28;94329.03;;;40.37;24.51
1926;BME280;964;42.606;23.588;2023-05-29T08:07:54;94332.34;;;39.99;23.67
1926;BME280;964;42.606;23.588;2023-05-29T08:10:21;94332.47;;;40.14;23.75
1926;BME280;964;42.606;23.588;2023-05-29T08:12:48;94330.25;;;40.21;23.42
1926;BME280;964;42.606;23.588;2023-05-29T08:15:15;94321.63;;;41.21;22.28
1926;BME280;964;42.606;23.588;2023-05-29T08:17:42;94305.72;;;41.44;22.02
1926;BME280;964;42.606;23.588;2023-05-29T08:20:11;94322.06;;;40.15;22.59
1926;BME280;964;42.606;23.588;2023-05-29T08:22:37;94320.53;;;40.06;23.90
1926;BME280;964;42.606;23.588;2023-05-29T08:25:05;94325.97;;;39.55;23.98
1926;BME280;964;42.606;23.588;2023-05-29T08:27:31;94324.38;;;40.90;23.24
1926;BME280;964;42.606;23.588;2023-05-29T08:30:05;94318.16;;;42.21;21.87
1926;BME280;964;42.606;23.588;2023-05-29T08:32:32;94326.78;;;40.94;23.13
1926;BME280;964;42.606;23.588;2023-05-29T08:34:59;94329.31;;;40.61;22.90
1926;BME280;964;42.606;23.588;2023-05-29T08:37:27;94326.91;;;39.86;24.23
1926;BME280;964;42.606;23.588;2023-05-29T08:39:54;94331.94;;;38.63;24.94
1926;BME280;964;42.606;23.588;2023-05-29T08:42:24;94331.66;;;37.36;25.35
1926;BME280;964;42.606;23.588;2023-05-29T08:44:56;94328.53;;;37.97;25.42
1926;BME280;964;42.606;23.588;2023-05-29T08:47:26;94323.81;;;38.32;24.76
1926;BME280;964;42.606;23.588;2023-05-29T08:49:53;94328.81;;;37.41;26.06
1926;BME280;964;42.606;23.588;2023-05-29T08:52:22;94324.69;;;38.00;25.71
1926;BME280;964;42.606;23.588;2023-05-29T08:54:51;94329.84;;;37.38;26.61
1926;BME280;964;42.606;23.588;2023-05-29T08:57:19;94315.91;;;39.73;24.19
1926;BME280;964;42.606;23.588;2023-05-29T08:59:47;94316.19;;;39.90;24.26
1926;BME280;964;42.606;23.588;2023-05-29T09:02:15;94319.84;;;38.74;24.78
1926;BME280;964;42.606;23.588;2023-05-29T09:04:42;94309.94;;;39.41;24.42
1926;BME280;964;42.606;23.588;2023-05-29T09:07:10;94298.66;;;41.05;22.58
1926;BME280;964;42.606;23.588;2023-05-29T09:09:38;94301.25;;;41.41;22.63
1926;BME280;964;42.606;23.588;2023-05-29T09:12:06;94296.56;;;41.89;21.19
1926;BME280;964;42.606;23.588;2023-05-29T09:14:36;94296.94;;;40.94;22.68
1926;BME280;964;42.606;23.588;2023-05-29T09:17:04;94291.97;;;41.00;21.89
1926;BME280;964;42.606;23.588;2023-05-29T09:19:30;94303.84;;;40.35;23.18
1926;BME280;964;42.606;23.588;2023-05-29T09:22:01;94283.44;;;41.13;23.30
1926;BME280;964;42.606;23.588;2023-05-29T09:24:29;94282.47;;;40.88;23.25
1926;BME280;964;42.606;23.588;2023-05-29T09:26:56;94286.03;;;39.87;24.26
1926;BME280;964;42.606;23.588;2023-05-29T09:29:26;94282.94;;;40.49;23.16
1926;BME280;964;42.606;23.588;2023-05-29T09:31:53;94279.91;;;40.90;22.94
1926;BME280;964;42.606;23.588;2023-05-29T09:34:23;94293.59;;;39.58;23.90
1926;BME280;964;42.606;23.588;2023-05-29T09:36:50;94276.00;;;40.86;22.86
1926;BME280;964;42.606;23.588;2023-05-29T09:39:17;94270.31;;;42.07;22.11
1926;BME280;964;42.606;23.588;2023-05-29T09:41:44;94268.22;;;42.23;22.31
1926;BME280;964;42.606;23.588;2023-05-29T09:44:12;94267.66;;;43.80;20.29
1926;BME280;964;42.606;23.588;2023-05-29T09:46:41;94273.31;;;43.31;20.62
1926;BME280;964;42.606;23.588;2023-05-29T09:49:10;94271.84;;;42.00;21.31
1926;BME280;964;42.606;23.588;2023-05-29T09:51:37;94269.78;;;42.01;21.38
1926;BME280;964;42.606;23.588;2023-05-29T09:54:13;94267.88;;;41.26;21.72
1926;BME280;964;42.606;23.588;2023-05-29T09:56:42;94261.56;;;41.48;21.66
1926;BME280;964;42.606;23.588;2023-05-29T09:59:10;94251.63;;;43.22;20.88
1926;BME280;964;42.606;23.588;2023-05-29T10:01:38;94243.25;;;43.64;21.00
1926;BME280;964;42.606;23.588;2023-05-29T10:04:08;94248.25;;;43.06;19.65
1926;BME280;964;42.606;23.588;2023-05-29T10:06:37;94248.59;;;44.48;19.23
1926;BME280;964;42.606;23.588;2023-05-29T10:09:06;94252.06;;;44.38;18.83
1926;BME280;964;42.606;23.588;2023-05-29T10:11:37;94261.94;;;43.12;20.26
1926;BME280;964;42.606;23.588;2023-05-29T10:14:05;94254.53;;;42.82;20.19
1926;BME280;964;42.606;23.588;2023-05-29T10:16:33;94255.47;;;42.04;20.78
1926;BME280;964;42.606;23.588;2023-05-29T10:19:06;94258.47;;;41.99;20.88
1926;BME280;964;42.606;23.588;2023-05-29T10:21:37;94251.72;;;41.47;21.34
1926;BME280;964;42.606;23.588;2023-05-29T10:24:05;94265.28;;;40.97;21.74
1926;BME280;964;42.606;23.588;2023-05-29T10:26:36;94267.94;;;40.37;22.25
1926;BME280;964;42.606;23.588;2023-05-29T10:29:08;94255.41;;;40.66;21.77
1926;BME280;964;42.606;23.588;2023-05-29T10:31:43;94259.66;;;40.59;20.83
1926;BME280;964;42.606;23.588;2023-05-29T10:34:25;94260.19;;;39.99;21.69
1926;BME280;964;42.606;23.588;2023-05-29T10:37:04;94265.56;;;40.56;21.94
1926;BME280;964;42.606;23.588;2023-05-29T10:39:32;94263.19;;;39.45;22.36
1926;BME280;964;42.606;23.588;2023-05-29T10:42:00;94276.38;;;37.88;25.39
1926;BME280;964;42.606;23.588;2023-05-29T10:44:39;94281.53;;;36.49;27.30
1926;BME280;964;42.606;23.588;2023-05-29T10:47:09;94269.78;;;37.39;26.28
1926;BME280;964;42.606;23.588;2023-05-29T10:49:37;94264.56;;;37.09;27.09
1926;BME280;964;42.606;23.588;2023-05-29T10:52:06;94267.75;;;38.05;25.90
1926;BME280;964;42.606;23.588;2023-05-29T10:54:41;94269.19;;;36.69;28.26
1926;BME280;964;42.606;23.588;2023-05-29T10:57:17;94268.31;;;36.10;27.71
1926;BME280;964;42.606;23.588;2023-05-29T10:59:45;94266.44;;;36.69;26.57
1926;BME280;964;42.606;23.588;2023-05-29T11:02:17;94271.94;;;36.18;29.24
1926;BME280;964;42.606;23.588;2023-05-29T11:05:04;94286.94;;;35.07;30.33
1926;BME280;964;42.606;23.588;2023-05-29T11:07:39;94291.50;;;34.28;32.05
1926;BME280;964;42.606;23.588;2023-05-29T11:10:17;94290.25;;;33.72;34.02
1926;BME280;964;42.606;23.588;2023-05-29T11:13:04;94298.56;;;32.38;36.02
1926;BME280;964;42.606;23.588;2023-05-29T11:15:32;94305.38;;;32.82;36.09
1926;BME280;964;42.606;23.588;2023-05-29T11:18:06;94301.56;;;31.65;37.66
1926;BME280;964;42.606;23.588;2023-05-29T11:20:37;94301.97;;;32.05;35.83
1926;BME280;964;42.606;23.588;2023-05-29T11:23:14;94306.34;;;33.23;35.36
1926;BME280;964;42.606;23.588;2023-05-29T11:25:44;94297.78;;;33.66;35.12
1926;BME280;964;42.606;23.588;2023-05-29T11:28:11;94287.88;;;33.29;35.43
1926;BME280;964;42.606;23.588;2023-05-29T11:30:44;94288.41;;;32.78;35.21
1926;BME280;964;42.606;23.588;2023-05-29T11:33:25;94284.59;;;34.05;34.48
1926;BME280;964;42.606;23.588;2023-05-29T11:35:57;94269.88;;;35.63;33.30
1926;BME280;964;42.606;23.588;2023-05-29T11:38:25;94278.50;;;34.94;32.11
1926;BME280;964;42.606;23.588;2023-05-29T11:40:53;94264.81;;;36.60;31.09
1926;BME280;964;42.606;23.588;2023-05-29T11:43:20;94261.50;;;37.78;29.98
1926;BME280;964;42.606;23.588;2023-05-29T11:45:47;94249.31;;;38.07;29.47
1926;BME280;964;42.606;23.588;2023-05-29T11:48:14;94243.25;;;39.82;27.78
1926;BME280;964;42.606;23.588;2023-05-29T11:50:41;94247.94;;;38.48;27.74
1926;BME280;964;42.606;23.588;2023-05-29T11:53:09;94233.91;;;40.59;25.27
1926;BME280;964;42.606;23.588;2023-05-29T11:55:37;94231.06;;;41.65;26.04
1926;BME280;964;42.606;23.588;2023-05-29T11:58:04;94222.34;;;42.56;24.30
1926;BME280;964;42.606;23.588;2023-05-29T12:00:32;94220.78;;;42.95;24.95
1926;BME280;964;42.606;23.588;2023-05-29T12:02:59;94244.16;;;40.21;26.69
1926;BME280;964;42.606;23.588;2023-05-29T12:05:29;94248.28;;;39.06;27.34
1926;BME280;964;42.606;23.588;2023-05-29T12:07:56;94236.41;;;40.27;26.96
1926;BME280;964;42.606;23.588;2023-05-29T12:10:26;94244.78;;;38.31;27.95
1926;BME280;964;42.606;23.588;2023-05-29T12:12:55;94235.00;;;38.29;28.26
1926;BME280;964;42.606;23.588;2023-05-29T12:15:22;94237.19;;;38.10;27.29
1926;BME280;964;42.606;23.588;2023-05-29T12:17:50;94236.16;;;38.00;27.89
1926;BME280;964;42.606;23.588;2023-05-29T12:20:17;94246.47;;;37.87;27.92
1926;BME280;964;42.606;23.588;2023-05-29T12:22:45;94237.47;;;38.74;28.65
1926;BME280;964;42.606;23.588;2023-05-29T12:25:13;94238.91;;;38.00;28.83
1926;BME280;964;42.606;23.588;2023-05-29T12:27:41;94243.28;;;37.04;29.77
1926;BME280;964;42.606;23.588;2023-05-29T12:30:11;94226.91;;;38.86;28.07
1926;BME280;964;42.606;23.588;2023-05-29T12:32:41;94236.31;;;38.70;27.94
1926;BME280;964;42.606;23.588;2023-05-29T12:35:12;94242.47;;;37.61;28.69
1926;BME280;964;42.606;23.588;2023-05-29T12:37:46;94235.97;;;37.19;28.74
1926;BME280;964;42.606;23.588;2023-05-29T12:40:17;94240.75;;;36.74;29.32
1926;BME280;964;42.606;23.588;2023-05-29T12:42:46;94248.03;;;36.90;29.39
1926;BME280;964;42.606;23.588;2023-05-29T12:45:14;94249.69;;;37.12;28.91
1926;BME280;964;42.606;23.588;2023-05-29T12:47:51;94244.44;;;36.13;30.29
1926;BME280;964;42.606;23.588;2023-05-29T12:50:22;94252.28;;;36.41;29.90
1926;BME280;964;42.606;23.588;2023-05-29T12:52:56;94245.59;;;35.80;31.09
1926;BME280;964;42.606;23.588;2023-05-29T12:55:23;94244.47;;;36.07;31.06
1926;BME280;964;42.606;23.588;2023-05-29T12:57:50;94237.81;;;36.85;29.05
1926;BME280;964;42.606;23.588;2023-05-29T13:00:19;94241.56;;;36.18;30.19
1926;BME280;964;42.606;23.588;2023-05-29T13:02:46;94243.25;;;36.59;28.96
1926;BME280;964;42.606;23.588;2023-05-29T13:05:14;94228.84;;;38.23;27.10
1926;BME280;964;42.606;23.588;2023-05-29T13:07:41;94224.91;;;38.53;26.82
1926;BME280;964;42.606;23.588;2023-05-29T13:10:09;94219.81;;;39.98;24.85
1926;BME280;964;42.606;23.588;2023-05-29T13:12:36;94213.72;;;40.66;25.34
1926;BME280;964;42.606;23.588;2023-05-29T13:15:03;94207.41;;;41.49;23.81
1926;BME280;964;42.606;23.588;2023-05-29T13:17:32;94195.31;;;42.01;22.21
1926;BME280;964;42.606;23.588;2023-05-29T13:19:59;94179.91;;;44.01;20.92
1926;BME280;964;42.606;23.588;2023-05-29T13:22:26;94192.16;;;44.32;20.69
1926;BME280;964;42.606;23.588;2023-05-29T13:24:57;94199.59;;;43.34;22.58
1926;BME280;964;42.606;23.588;2023-05-29T13:27:24;94217.13;;;42.28;22.14